Terminal Aerodrome Forecast
Issued by NWS

Home | Current Version | Previous Version | Text Only | Print | Product List | Glossary On
Versions: 1 2 3 4 5 6 7 8 9 10 11 12 13 14
000
FTUS46 KOTX 230654 AAA
TAFSFF
TAF AMD
KSFF 230654Z 2307/2406 VRB02KT P6SM SCT070 BKN100
      TEMPO 2307/2308 -SHRA
     FM230900 VRB02KT P6SM FEW120
     FM231900 09006KT P6SM SCT080 BKN150
     FM240000 VRB06KT P6SM VCSH SCT050 BKN090 BKN150=

USA.gov is the U.S. government's official web portal to all federal, state and local government web resources and services.